createdAt,value
2022-12-09T00:09:28.995Z,3.72
2022-12-09T00:29:31.567Z,3.70
2022-12-09T00:49:34.693Z,3.67
2022-12-09T01:09:37.414Z,3.51
2022-12-09T01:29:40.381Z,3.51
2022-12-09T01:49:44.263Z,3.36
2022-12-09T02:09:46.830Z,3.56
2022-12-09T02:29:49.469Z,3.51
2022-12-09T02:49:52.363Z,3.47
2022-12-09T03:09:55.032Z,3.50
2022-12-09T03:29:57.997Z,3.45
2022-12-09T03:50:01.173Z,3.59
2022-12-09T04:10:04.397Z,3.66
2022-12-09T04:30:07.507Z,3.70
2022-12-09T04:50:10.756Z,3.60
2022-12-09T05:10:14.185Z,3.40
2022-12-09T05:30:17.447Z,3.15
2022-12-09T05:50:21.211Z,2.83
2022-12-09T06:10:24.729Z,2.87
2022-12-09T06:30:27.547Z,2.67
2022-12-09T06:50:30.812Z,2.83
2022-12-09T07:10:33.727Z,1.82
2022-12-09T07:30:36.800Z,2.00
2022-12-09T07:50:39.675Z,2.82
2022-12-09T08:10:42.503Z,3.27
2022-12-09T08:30:45.495Z,3.77
2022-12-09T08:50:48.684Z,4.13
2022-12-09T09:10:51.970Z,4.49
2022-12-09T09:30:54.965Z,4.71
2022-12-09T09:50:57.753Z,5.66
2022-12-09T10:11:00.793Z,6.20
2022-12-09T10:31:03.632Z,6.46
2022-12-09T10:51:07.096Z,6.10
2022-12-09T11:11:10.384Z,6.57
2022-12-09T11:31:28.814Z,6.26
2022-12-09T11:51:31.733Z,6.25
2022-12-09T15:14:59.553Z,4.29
2022-12-09T16:15:45.988Z,3.00
2022-12-09T16:35:49.068Z,3.01
2022-12-09T16:55:51.528Z,2.88
2022-12-09T17:15:59.260Z,2.67
2022-12-09T17:36:01.784Z,2.61
2022-12-09T17:56:04.201Z,2.29
2022-12-09T18:16:06.621Z,2.23
2022-12-09T18:36:09.200Z,2.34
2022-12-09T18:56:11.632Z,2.27
2022-12-09T19:16:14.290Z,2.32
2022-12-09T19:36:18.160Z,2.27
2022-12-09T19:56:20.648Z,2.17
2022-12-09T20:16:23.726Z,1.89
2022-12-09T20:36:26.172Z,1.86
2022-12-09T20:56:29.132Z,2.14
2022-12-09T21:16:31.863Z,2.06
2022-12-09T21:36:36.836Z,1.83
2022-12-09T21:56:39.251Z,1.86
2022-12-09T22:16:41.727Z,1.96
2022-12-09T22:36:44.375Z,2.05
2022-12-09T22:56:46.905Z,1.99
2022-12-09T23:16:49.347Z,1.93
2022-12-09T23:36:54.694Z,1.88
2022-12-09T23:56:57.111Z,1.60
